Time;durP1;ratioP1;P1;durP2;ratioP2;P2;SDS_P1;SDS_P2;PMS_P1;PMS_P2;Temp;Humidity;BMP_temperature;BMP_pressure;BME280_temperature;BME280_humidity;BME280_pressure;Samples;Min_cycle;Max_cycle;Signal;HPM_P1;HPM_P2
2023/05/11 00:02:18;;;;;;;99.35;32.88;;;12.30;99.90;;;;;;4972304;28;20054;-77
2023/05/11 00:04:44;;;;;;;102.32;34.40;;;12.40;99.90;;;;;;4991818;28;20050;-76
2023/05/11 00:07:09;;;;;;;91.82;34.15;;;12.40;99.90;;;;;;4974431;28;20047;-75
2023/05/11 00:09:37;;;;;;;87.22;34.10;;;12.40;99.90;;;;;;4988584;28;20031;-76
2023/05/11 00:12:03;;;;;;;92.30;34.70;;;12.40;99.90;;;;;;4989505;28;20058;-76
2023/05/11 00:14:29;;;;;;;88.63;33.50;;;12.40;99.90;;;;;;4972947;28;20031;-75
2023/05/11 00:16:54;;;;;;;93.75;33.92;;;12.40;99.90;;;;;;4989748;28;20026;-75
2023/05/11 00:19:20;;;;;;;87.25;36.45;;;12.40;99.90;;;;;;4989571;28;20046;-75
2023/05/11 00:21:45;;;;;;;86.50;34.67;;;12.40;99.90;;;;;;4991889;28;20031;-75
2023/05/11 00:24:11;;;;;;;82.05;33.38;;;12.30;99.90;;;;;;4988516;28;20097;-76
2023/05/11 00:26:36;;;;;;;78.65;31.52;;;12.40;99.90;;;;;;4972833;28;20427;-75
2023/05/11 00:29:02;;;;;;;83.60;31.95;;;12.40;99.90;;;;;;4972852;28;20030;-75
2023/05/11 00:31:28;;;;;;;76.40;30.88;;;12.30;99.90;;;;;;4991661;28;20068;-75
2023/05/11 00:33:53;;;;;;;76.47;31.05;;;12.40;99.90;;;;;;4990704;28;20034;-76
2023/05/11 00:36:19;;;;;;;72.43;31.20;;;12.40;99.90;;;;;;4988974;28;20114;-74
2023/05/11 00:38:45;;;;;;;77.93;32.38;;;12.40;99.90;;;;;;4972965;28;20118;-76
2023/05/11 00:41:11;;;;;;;73.68;30.13;;;12.40;99.90;;;;;;4989673;28;20054;-74
2023/05/11 00:43:36;;;;;;;75.03;31.02;;;12.40;99.90;;;;;;4990832;28;20066;-76
2023/05/11 00:46:02;;;;;;;71.85;29.23;;;12.40;99.90;;;;;;4993204;28;20034;-76
2023/05/11 00:48:27;;;;;;;74.45;30.60;;;12.40;99.90;;;;;;4993198;28;20057;-75
2023/05/11 00:50:53;;;;;;;71.85;30.20;;;12.50;99.90;;;;;;4993100;28;20026;-75
2023/05/11 00:53:19;;;;;;;74.70;29.80;;;12.40;99.90;;;;;;4975516;28;20023;-75
2023/05/11 00:55:45;;;;;;;66.53;28.13;;;12.40;99.90;;;;;;4993499;28;20030;-75
2023/05/11 00:58:11;;;;;;;70.93;29.85;;;12.40;99.90;;;;;;4976349;28;20050;-74
2023/05/11 01:00:37;;;;;;;73.50;31.50;;;12.40;99.90;;;;;;4975006;28;20416;-76
2023/05/11 01:03:03;;;;;;;75.20;30.63;;;12.40;99.90;;;;;;4976006;28;20030;-74
2023/05/11 01:05:55;;;;;;;75.72;30.95;;;12.40;99.90;;;;;;4975788;28;20047;-75
2023/05/11 01:08:27;;;;;;;72.55;31.33;;;12.40;99.90;;;;;;4975532;28;20110;-76
2023/05/11 01:11:09;;;;;;;71.70;30.58;;;12.40;99.90;;;;;;4975652;28;20027;-75
2023/05/11 01:13:59;;;;;;;68.22;29.58;;;12.40;99.90;;;;;;4991138;28;20046;-76
2023/05/11 01:16:25;;;;;;;72.25;32.28;;;12.30;99.90;;;;;;4993045;28;20038;-73
2023/05/11 01:18:59;;;;;;;72.53;31.25;;;12.40;99.90;;;;;;4992061;28;20055;-74
2023/05/11 01:21:30;;;;;;;72.35;31.55;;;12.40;99.90;;;;;;4991951;28;20026;-73
2023/05/11 01:24:21;;;;;;;70.82;30.75;;;12.40;99.90;;;;;;4992456;28;20030;-74
2023/05/11 01:27:29;;;;;;;69.90;31.40;;;12.30;99.90;;;;;;4973526;28;20071;-75
2023/05/11 01:30:13;;;;;;;73.75;30.75;;;12.40;99.90;;;;;;4974500;28;20027;-73
2023/05/11 01:32:41;;;;;;;71.68;29.70;;;12.40;99.90;;;;;;4973609;28;20033;-74
2023/05/11 01:35:13;;;;;;;78.20;31.50;;;12.40;99.90;;;;;;4991670;28;20905;-75
2023/05/11 01:37:43;;;;;;;75.63;31.35;;;12.40;99.90;;;;;;4991855;28;20046;-75
2023/05/11 01:40:15;;;;;;;77.93;32.10;;;12.30;99.90;;;;;;4974444;28;20045;-74
2023/05/11 01:42:46;;;;;;;81.68;32.63;;;12.40;99.90;;;;;;4992095;28;20027;-75
2023/05/11 01:45:13;;;;;;;71.30;30.13;;;12.30;99.90;;;;;;4992312;28;20023;-74
2023/05/11 01:47:40;;;;;;;71.30;29.73;;;12.30;99.90;;;;;;4991581;28;20585;-74
2023/05/11 01:50:07;;;;;;;77.35;31.75;;;12.30;99.90;;;;;;4990991;28;20070;-75
2023/05/11 01:52:35;;;;;;;81.82;32.67;;;12.30;99.90;;;;;;4974107;28;20030;-73
2023/05/11 01:55:04;;;;;;;73.78;30.50;;;12.30;99.90;;;;;;4974062;28;20049;-74
2023/05/11 01:57:31;;;;;;;70.63;29.75;;;12.30;99.90;;;;;;4992006;28;20130;-74
2023/05/11 01:59:58;;;;;;;72.72;30.92;;;12.30;99.90;;;;;;4975499;28;20058;-76
2023/05/11 02:02:25;;;;;;;73.38;29.45;;;12.30;99.90;;;;;;4991360;28;20031;-75
2023/05/11 02:04:53;;;;;;;69.22;27.88;;;12.20;99.90;;;;;;4991833;28;20023;-76
2023/05/11 02:07:20;;;;;;;68.13;27.92;;;12.10;99.90;;;;;;4992768;28;20022;-74
2023/05/11 02:09:48;;;;;;;74.20;29.50;;;12.10;99.90;;;;;;4992376;28;20037;-74
2023/05/11 02:12:18;;;;;;;74.03;29.15;;;12.10;99.90;;;;;;4974749;28;20047;-74
2023/05/11 02:14:45;;;;;;;76.60;30.00;;;12.10;99.90;;;;;;4992036;28;20039;-75
2023/05/11 02:17:14;;;;;;;72.78;29.23;;;12.00;99.90;;;;;;4974464;28;20023;-75
2023/05/11 02:19:42;;;;;;;72.65;29.85;;;12.00;99.90;;;;;;4991675;28;20354;-74
2023/05/11 02:22:08;;;;;;;76.82;29.65;;;12.00;99.90;;;;;;4991985;28;20023;-75
2023/05/11 02:24:34;;;;;;;72.28;29.30;;;12.00;99.90;;;;;;4973946;28;20030;-75
2023/05/11 02:27:00;;;;;;;76.45;30.42;;;12.00;99.90;;;;;;4992305;28;20034;-73
2023/05/11 02:29:26;;;;;;;77.05;29.85;;;12.00;99.90;;;;;;4974987;28;20544;-74
2023/05/11 02:32:14;;;;;;;70.57;28.77;;;12.00;99.90;;;;;;4974361;28;20030;-75
2023/05/11 02:34:44;;;;;;;63.28;27.65;;;12.00;99.90;;;;;;4994544;28;20034;-75
2023/05/11 02:37:14;;;;;;;61.45;26.00;;;12.00;99.90;;;;;;4995876;28;20026;-75
2023/05/11 02:39:42;;;;;;;56.42;24.88;;;12.00;99.90;;;;;;4978898;28;20138;-75
2023/05/11 02:42:14;;;;;;;61.85;26.05;;;12.00;99.90;;;;;;4978366;28;20077;-73
2023/05/11 02:44:50;;;;;;;56.58;25.80;;;12.00;99.90;;;;;;4977827;28;20042;-74
2023/05/11 02:47:18;;;;;;;57.35;26.27;;;11.90;99.90;;;;;;4979065;28;20038;-74
2023/05/11 02:49:46;;;;;;;68.50;27.45;;;11.90;99.90;;;;;;4978216;28;20026;-74
2023/05/11 02:52:14;;;;;;;58.47;26.08;;;11.90;99.90;;;;;;4978156;28;20471;-73
2023/05/11 02:54:41;;;;;;;61.80;26.35;;;11.80;99.90;;;;;;4977962;28;20073;-75
2023/05/11 02:57:06;;;;;;;57.33;26.48;;;11.80;99.90;;;;;;4995326;28;20082;-74
2023/05/11 02:59:32;;;;;;;68.15;28.00;;;11.80;99.90;;;;;;4995742;28;20035;-72
2023/05/11 03:01:59;;;;;;;59.15;27.98;;;11.90;99.90;;;;;;4995419;28;20042;-75
2023/05/11 03:04:28;;;;;;;64.65;27.80;;;11.90;99.90;;;;;;4977194;28;20069;-75
2023/05/11 03:06:53;;;;;;;62.90;28.83;;;11.90;99.90;;;;;;4995060;28;20034;-75
2023/05/11 03:09:19;;;;;;;65.97;29.05;;;11.90;99.90;;;;;;4978360;28;20061;-75
2023/05/11 03:11:45;;;;;;;61.42;27.85;;;11.80;99.90;;;;;;4976807;28;20053;-75
2023/05/11 03:14:11;;;;;;;58.25;25.70;;;11.90;99.90;;;;;;4976707;28;20031;-74
2023/05/11 03:16:39;;;;;;;54.83;25.48;;;11.90;99.90;;;;;;4976801;28;20088;-74
2023/05/11 03:19:06;;;;;;;50.97;22.95;;;11.90;99.90;;;;;;4995011;28;20030;-74
2023/05/11 03:21:35;;;;;;;52.47;23.58;;;11.80;99.90;;;;;;4978276;28;20022;-73
2023/05/11 03:24:01;;;;;;;49.35;23.17;;;11.80;99.90;;;;;;4977937;28;20043;-74
2023/05/11 03:26:28;;;;;;;55.55;24.33;;;11.80;99.90;;;;;;4994046;28;20034;-74
2023/05/11 03:28:55;;;;;;;55.70;23.90;;;11.80;99.90;;;;;;4994518;28;20146;-75
2023/05/11 03:31:21;;;;;;;53.83;25.48;;;11.70;99.90;;;;;;4977110;28;20066;-76
2023/05/11 03:33:46;;;;;;;54.10;23.35;;;11.70;99.90;;;;;;4977598;28;20030;-74
2023/05/11 03:36:13;;;;;;;57.58;25.27;;;11.80;99.90;;;;;;4995365;28;20031;-74
2023/05/11 03:38:39;;;;;;;54.63;25.50;;;11.70;99.90;;;;;;4994468;28;20077;-74
2023/05/11 03:41:04;;;;;;;60.40;26.02;;;11.70;99.90;;;;;;4994054;28;20030;-75
2023/05/11 03:43:33;;;;;;;57.78;24.52;;;11.70;99.90;;;;;;4995177;28;20583;-73
2023/05/11 03:46:00;;;;;;;52.53;23.48;;;11.70;99.90;;;;;;4993393;28;20079;-74
2023/05/11 03:48:26;;;;;;;52.65;23.35;;;11.70;99.90;;;;;;4994286;28;20022;-73
2023/05/11 03:50:52;;;;;;;51.75;23.58;;;11.70;99.90;;;;;;4994962;28;20061;-74
2023/05/11 03:53:18;;;;;;;56.25;24.23;;;11.70;99.90;;;;;;4976016;28;20058;-73
2023/05/11 03:55:44;;;;;;;59.88;25.63;;;11.70;99.90;;;;;;4994651;28;20399;-75
2023/05/11 03:58:10;;;;;;;54.20;23.92;;;11.70;99.90;;;;;;4977146;28;20057;-74
2023/05/11 04:00:40;;;;;;;55.35;24.08;;;11.70;99.90;;;;;;4993177;28;20035;-75
2023/05/11 04:03:06;;;;;;;52.42;23.38;;;11.60;99.90;;;;;;4977009;28;20034;-74
2023/05/11 04:05:32;;;;;;;59.88;26.55;;;11.60;99.90;;;;;;4976867;28;20018;-74
2023/05/11 04:07:58;;;;;;;68.40;26.05;;;11.60;99.90;;;;;;4976457;28;20042;-75
2023/05/11 04:10:23;;;;;;;56.65;24.98;;;11.60;99.90;;;;;;4994729;28;20034;-74
2023/05/11 04:12:49;;;;;;;58.88;25.27;;;11.60;99.90;;;;;;4976844;28;20047;-75
2023/05/11 04:15:14;;;;;;;64.60;26.80;;;11.50;99.90;;;;;;4993979;28;20026;-74
2023/05/11 04:17:40;;;;;;;54.10;24.35;;;11.70;99.90;;;;;;4994499;28;20023;-74
2023/05/11 04:20:06;;;;;;;61.63;26.38;;;11.70;99.90;;;;;;4994013;28;20054;-75
2023/05/11 04:22:32;;;;;;;56.17;24.85;;;11.70;99.90;;;;;;4993386;28;20026;-75
2023/05/11 04:24:57;;;;;;;55.08;25.13;;;11.80;99.90;;;;;;4993959;28;20090;-74
2023/05/11 04:27:23;;;;;;;55.15;24.83;;;11.70;99.90;;;;;;4976720;28;20052;-73
2023/05/11 04:29:49;;;;;;;64.60;26.65;;;11.70;99.90;;;;;;4976414;28;20380;-74
2023/05/11 04:32:15;;;;;;;60.25;26.80;;;11.80;99.90;;;;;;4977120;28;20037;-75
2023/05/11 04:34:41;;;;;;;58.35;25.58;;;11.80;99.90;;;;;;4993752;28;20364;-74
2023/05/11 04:37:09;;;;;;;56.03;24.88;;;11.80;99.90;;;;;;4976194;28;20081;-73
2023/05/11 04:39:35;;;;;;;61.80;26.10;;;11.80;99.90;;;;;;4993153;28;20083;-75
2023/05/11 04:42:00;;;;;;;62.30;26.52;;;11.60;99.90;;;;;;4992779;28;20038;-75
2023/05/11 04:44:26;;;;;;;57.13;24.45;;;11.80;99.90;;;;;;4994332;28;20035;-74
2023/05/11 04:46:55;;;;;;;65.38;24.85;;;11.80;99.90;;;;;;4975533;28;20038;-74
2023/05/11 04:49:21;;;;;;;53.55;23.27;;;11.80;99.90;;;;;;4992813;28;20022;-75
2023/05/11 04:51:47;;;;;;;51.55;23.52;;;11.80;99.90;;;;;;4993991;28;20034;-73
2023/05/11 04:54:12;;;;;;;49.22;22.70;;;11.90;99.90;;;;;;4993337;28;20026;-75
2023/05/11 04:56:39;;;;;;;50.10;22.73;;;11.90;99.90;;;;;;4992547;28;20070;-74
2023/05/11 04:59:08;;;;;;;52.63;22.95;;;11.90;99.90;;;;;;4992818;28;20046;-75
2023/05/11 05:01:34;;;;;;;53.45;21.48;;;11.90;99.90;;;;;;4993108;28;20055;-75
2023/05/11 05:03:59;;;;;;;47.13;21.38;;;11.90;99.90;;;;;;4976035;28;20028;-75
2023/05/11 05:06:25;;;;;;;40.33;19.75;;;11.90;99.90;;;;;;4976356;28;20031;-75
2023/05/11 05:08:50;;;;;;;44.25;20.15;;;11.90;99.90;;;;;;4993390;28;20022;-73
2023/05/11 05:11:16;;;;;;;46.63;20.92;;;11.90;99.90;;;;;;4976114;28;20070;-74
2023/05/11 05:13:42;;;;;;;47.53;21.15;;;11.90;99.90;;;;;;4992484;28;20121;-74
2023/05/11 05:16:09;;;;;;;46.78;22.23;;;11.90;99.90;;;;;;4974672;28;20037;-75
2023/05/11 05:18:35;;;;;;;47.97;22.13;;;11.90;99.90;;;;;;4973204;28;20030;-75
2023/05/11 05:21:01;;;;;;;55.30;23.33;;;11.90;99.90;;;;;;4975544;28;20045;-72
2023/05/11 05:23:27;;;;;;;52.47;23.75;;;12.00;99.90;;;;;;4975540;28;20098;-72
2023/05/11 05:25:52;;;;;;;49.25;22.70;;;11.90;99.90;;;;;;4975663;28;20018;-73
2023/05/11 05:28:18;;;;;;;52.42;23.63;;;11.90;99.90;;;;;;4993180;28;20043;-73
2023/05/11 05:30:44;;;;;;;56.17;23.25;;;11.90;99.90;;;;;;4993482;28;20018;-71
2023/05/11 05:33:09;;;;;;;52.83;23.75;;;11.90;99.90;;;;;;4992527;28;21465;-72
2023/05/11 05:35:35;;;;;;;55.80;24.20;;;11.90;99.90;;;;;;4992774;28;20034;-71
2023/05/11 05:38:00;;;;;;;52.63;22.10;;;11.90;99.90;;;;;;4992227;28;20118;-72
2023/05/11 05:40:27;;;;;;;50.72;23.50;;;12.00;99.90;;;;;;4989747;28;20063;-72
2023/05/11 05:42:53;;;;;;;51.30;23.50;;;12.00;99.90;;;;;;4989157;28;20022;-73
2023/05/11 05:45:19;;;;;;;52.47;23.35;;;12.00;99.90;;;;;;4972107;28;20078;-72
2023/05/11 05:47:44;;;;;;;49.38;21.98;;;12.10;99.90;;;;;;4992687;28;20038;-72
2023/05/11 05:50:10;;;;;;;55.67;22.58;;;12.10;99.90;;;;;;4974345;28;20062;-72
2023/05/11 05:52:36;;;;;;;51.00;22.55;;;12.20;99.90;;;;;;4992902;28;20361;-71
2023/05/11 05:55:01;;;;;;;55.58;23.55;;;12.10;99.90;;;;;;4992389;28;20026;-72
2023/05/11 05:57:29;;;;;;;50.10;22.52;;;12.10;99.90;;;;;;4992856;28;20030;-72
2023/05/11 05:59:55;;;;;;;55.35;23.55;;;12.10;99.90;;;;;;4974677;28;20054;-72
2023/05/11 06:02:20;;;;;;;51.00;23.73;;;12.10;99.90;;;;;;4987007;28;20018;-71
2023/05/11 06:04:46;;;;;;;51.55;22.13;;;12.20;99.90;;;;;;4991954;28;20031;-72
2023/05/11 06:07:13;;;;;;;48.13;21.63;;;12.20;99.90;;;;;;4988389;28;20045;-74
2023/05/11 06:09:39;;;;;;;49.47;22.15;;;12.10;99.90;;;;;;4990521;28;20076;-71
2023/05/11 06:12:05;;;;;;;49.10;22.23;;;12.20;99.90;;;;;;4971602;28;20075;-72
2023/05/11 06:14:31;;;;;;;44.35;21.00;;;12.20;99.90;;;;;;4972351;28;20567;-71
2023/05/11 06:16:56;;;;;;;50.95;22.45;;;12.20;99.90;;;;;;4973025;28;20380;-72
2023/05/11 06:19:22;;;;;;;47.47;21.67;;;12.20;99.90;;;;;;4972925;28;20028;-71
2023/05/11 06:21:47;;;;;;;48.53;21.25;;;12.20;99.90;;;;;;4973063;28;20030;-70
2023/05/11 06:24:13;;;;;;;45.53;21.23;;;12.20;99.90;;;;;;4973232;28;20094;-70
2023/05/11 06:26:39;;;;;;;50.90;22.58;;;12.30;99.90;;;;;;4971281;28;20500;-72
2023/05/11 06:29:06;;;;;;;48.67;22.02;;;12.40;99.90;;;;;;4972435;28;20019;-72
2023/05/11 06:31:32;;;;;;;48.25;21.25;;;12.40;99.90;;;;;;4972961;28;20050;-71
2023/05/11 06:33:58;;;;;;;50.95;22.08;;;12.40;99.90;;;;;;4971860;28;20051;-71
2023/05/11 06:36:24;;;;;;;46.08;21.48;;;12.40;99.90;;;;;;4970951;28;20027;-72
2023/05/11 06:38:49;;;;;;;48.58;21.48;;;12.40;99.90;;;;;;4972969;28;20030;-72
2023/05/11 06:41:15;;;;;;;45.28;20.50;;;12.40;99.90;;;;;;4972834;28;20034;-72
2023/05/11 06:43:41;;;;;;;46.10;21.63;;;12.40;99.90;;;;;;4971335;28;20101;-71
2023/05/11 06:46:06;;;;;;;47.58;20.67;;;12.50;99.90;;;;;;4972785;28;20027;-72
2023/05/11 06:48:32;;;;;;;44.85;21.15;;;12.40;99.90;;;;;;4970752;28;20027;-72
2023/05/11 06:50:58;;;;;;;48.28;22.90;;;12.50;99.90;;;;;;4972507;28;20078;-71
2023/05/11 06:53:23;;;;;;;50.67;22.67;;;12.50;99.90;;;;;;4970012;28;20110;-71
2023/05/11 06:55:49;;;;;;;47.67;21.58;;;12.60;99.90;;;;;;4966267;28;20056;-72
2023/05/11 06:58:15;;;;;;;43.90;19.17;;;12.60;99.90;;;;;;4969452;28;20031;-72
2023/05/11 07:00:41;;;;;;;44.95;21.25;;;12.70;99.90;;;;;;4970379;28;20035;-72
2023/05/11 07:03:07;;;;;;;45.40;19.75;;;12.70;99.90;;;;;;4971731;28;20027;-70
2023/05/11 07:05:34;;;;;;;42.92;20.63;;;12.80;99.90;;;;;;4970411;28;20398;-71
2023/05/11 07:07:59;;;;;;;42.40;20.17;;;12.70;99.90;;;;;;4971539;28;20054;-72
2023/05/11 07:10:25;;;;;;;40.85;19.67;;;12.90;99.90;;;;;;4968018;28;20034;-71
2023/05/11 07:12:51;;;;;;;37.17;18.38;;;12.90;99.90;;;;;;4968011;28;20082;-71
2023/05/11 07:15:16;;;;;;;36.58;17.88;;;12.90;99.90;;;;;;4970243;28;20054;-71
2023/05/11 07:17:46;;;;;;;34.92;17.83;;;12.90;99.90;;;;;;4971569;28;20034;-71
2023/05/11 07:20:11;;;;;;;35.38;17.42;;;13.00;99.90;;;;;;4970441;28;20031;-71
2023/05/11 07:22:37;;;;;;;38.65;17.60;;;13.00;99.90;;;;;;4973855;28;20037;-72
2023/05/11 07:25:03;;;;;;;32.80;15.77;;;13.00;99.90;;;;;;4974270;28;20037;-71
2023/05/11 07:27:30;;;;;;;31.52;15.82;;;13.10;99.90;;;;;;4973169;28;20030;-73
2023/05/11 07:29:55;;;;;;;29.73;15.90;;;13.10;99.90;;;;;;4974812;28;20039;-72
2023/05/11 07:32:21;;;;;;;33.08;16.15;;;13.10;99.90;;;;;;4975633;28;20023;-70
2023/05/11 07:34:47;;;;;;;35.67;18.10;;;13.20;99.90;;;;;;4976188;28;20476;-71
2023/05/11 07:37:12;;;;;;;34.08;17.17;;;13.20;99.90;;;;;;4975985;28;20022;-71
2023/05/11 07:39:38;;;;;;;33.72;17.42;;;13.30;99.90;;;;;;4973494;28;20030;-72
2023/05/11 07:42:04;;;;;;;33.20;15.70;;;13.30;99.90;;;;;;4964992;28;20032;-71
2023/05/11 07:44:30;;;;;;;31.15;15.80;;;13.40;99.90;;;;;;4970426;28;20035;-72
2023/05/11 07:46:57;;;;;;;32.08;17.02;;;13.50;99.90;;;;;;4970008;28;20137;-71
2023/05/11 07:49:23;;;;;;;35.83;17.20;;;13.40;99.90;;;;;;4973380;28;20047;-71
2023/05/11 07:51:50;;;;;;;32.70;16.23;;;13.40;99.90;;;;;;4972228;28;20023;-72
2023/05/11 07:54:16;;;;;;;35.03;16.98;;;13.50;99.90;;;;;;4975107;28;20022;-72
2023/05/11 07:56:42;;;;;;;35.28;17.15;;;13.40;99.90;;;;;;4972899;28;20073;-72
2023/05/11 07:59:07;;;;;;;32.95;17.10;;;13.40;99.90;;;;;;4974918;28;20050;-70
2023/05/11 08:01:33;;;;;;;36.33;18.25;;;13.50;99.90;;;;;;4975326;28;20035;-72
2023/05/11 08:03:59;;;;;;;36.10;17.85;;;13.40;99.90;;;;;;4972190;28;20027;-71
2023/05/11 08:06:24;;;;;;;32.55;16.25;;;13.50;99.90;;;;;;4972302;28;20042;-71
2023/05/11 08:08:50;;;;;;;29.35;15.13;;;13.50;99.90;;;;;;4975389;28;20106;-72
2023/05/11 08:11:16;;;;;;;32.40;15.80;;;13.60;99.90;;;;;;4974238;28;20031;-73
2023/05/11 08:13:41;;;;;;;34.03;15.75;;;13.60;99.90;;;;;;4991017;28;20050;-72
2023/05/11 08:16:07;;;;;;;30.55;14.93;;;13.60;99.90;;;;;;4993932;28;20118;-72
2023/05/11 08:18:32;;;;;;;30.58;15.50;;;13.70;99.90;;;;;;4994678;28;20035;-72
2023/05/11 08:20:58;;;;;;;30.75;15.68;;;13.80;99.90;;;;;;4992065;28;20066;-70
2023/05/11 08:23:23;;;;;;;30.58;15.20;;;13.90;99.90;;;;;;4993242;28;20031;-73
2023/05/11 08:25:51;;;;;;;26.08;13.20;;;13.90;99.90;;;;;;4976178;28;20050;-74
2023/05/11 08:28:18;;;;;;;27.63;14.60;;;14.00;99.90;;;;;;4975759;28;20046;-72
2023/05/11 08:30:44;;;;;;;25.70;13.77;;;14.10;99.90;;;;;;4993820;28;20019;-71
2023/05/11 08:33:10;;;;;;;26.70;14.85;;;14.30;99.90;;;;;;4993068;28;20123;-72
2023/05/11 08:35:37;;;;;;;27.08;13.60;;;14.30;99.90;;;;;;4991203;28;20034;-71
2023/05/11 08:38:03;;;;;;;25.75;12.77;;;14.30;99.90;;;;;;4990364;28;20030;-72
2023/05/11 08:40:30;;;;;;;27.25;14.35;;;14.40;99.90;;;;;;4989755;28;20037;-72
2023/05/11 08:42:56;;;;;;;31.50;14.48;;;14.40;99.90;;;;;;4989832;28;20113;-73
2023/05/11 08:45:22;;;;;;;30.35;15.02;;;14.40;99.90;;;;;;4992596;28;20162;-71
2023/05/11 08:47:48;;;;;;;26.08;12.52;;;14.40;99.90;;;;;;4993762;28;20081;-72
2023/05/11 08:50:14;;;;;;;27.35;14.35;;;14.50;99.90;;;;;;4976257;28;20050;-71
2023/05/11 08:52:40;;;;;;;28.88;14.90;;;14.60;99.90;;;;;;4975203;28;20050;-71
2023/05/11 08:55:08;;;;;;;25.77;14.13;;;14.60;99.90;;;;;;4992465;28;20020;-72
2023/05/11 08:57:34;;;;;;;26.50;14.13;;;14.50;99.90;;;;;;4974670;28;20475;-72
2023/05/11 09:00:02;;;;;;;27.65;14.73;;;14.50;99.90;;;;;;4992251;28;20113;-71
2023/05/11 09:02:28;;;;;;;30.33;14.57;;;14.50;99.90;;;;;;4992622;28;20019;-71
2023/05/11 09:04:53;;;;;;;27.85;14.15;;;14.50;99.90;;;;;;4992998;28;20084;-71
2023/05/11 09:07:23;;;;;;;27.33;14.25;;;14.60;99.90;;;;;;4971971;28;20055;-71
2023/05/11 09:09:49;;;;;;;29.95;14.40;;;14.60;99.90;;;;;;4990230;28;20039;-72
2023/05/11 09:12:15;;;;;;;24.02;13.73;;;14.60;99.90;;;;;;4973652;28;20052;-70
2023/05/11 09:14:41;;;;;;;30.42;15.20;;;14.60;99.90;;;;;;4974713;28;20093;-71
2023/05/11 09:17:07;;;;;;;29.67;14.02;;;14.70;99.90;;;;;;4993435;28;20035;-72
2023/05/11 09:19:33;;;;;;;27.08;13.48;;;14.60;99.90;;;;;;4993042;28;20118;-73
2023/05/11 09:21:59;;;;;;;27.50;13.93;;;14.60;99.90;;;;;;4992726;28;20026;-73
2023/05/11 09:24:25;;;;;;;29.33;14.95;;;14.60;99.90;;;;;;4993466;28;20023;-71
2023/05/11 09:27:07;;;;;;;26.55;13.45;;;14.70;99.90;;;;;;4975397;28;20049;-71
2023/05/11 09:29:32;;;;;;;25.25;13.60;;;14.60;99.90;;;;;;4992008;28;20046;-72
2023/05/11 09:31:58;;;;;;;30.38;13.60;;;14.60;99.90;;;;;;4991428;28;20057;-72
2023/05/11 09:34:23;;;;;;;25.33;12.68;;;14.70;99.90;;;;;;4976098;28;20044;-73
2023/05/11 09:36:51;;;;;;;25.55;12.10;;;14.70;99.90;;;;;;4973884;28;20062;-72
2023/05/11 09:39:26;;;;;;;26.55;13.48;;;14.70;99.90;;;;;;4989643;28;20420;-72
2023/05/11 09:42:09;;;;;;;27.13;13.40;;;14.80;99.90;;;;;;4990381;28;20053;-72
2023/05/11 09:44:35;;;;;;;28.17;14.45;;;14.70;99.90;;;;;;4975591;28;20023;-72
2023/05/11 09:47:11;;;;;;;28.95;12.90;;;14.70;99.90;;;;;;4972024;28;20046;-72
2023/05/11 09:49:37;;;;;;;30.10;14.23;;;14.80;99.90;;;;;;4975068;28;20023;-71
2023/05/11 09:52:03;;;;;;;26.63;13.50;;;14.80;99.90;;;;;;4992861;28;20046;-72
2023/05/11 09:54:29;;;;;;;33.78;15.30;;;14.80;99.90;;;;;;4974753;28;20058;-71
2023/05/11 09:56:57;;;;;;;35.75;16.10;;;14.90;99.90;;;;;;4974387;28;20041;-72
2023/05/11 09:59:38;;;;;;;30.08;14.48;;;15.00;99.90;;;;;;4992034;28;20030;-73
2023/05/11 10:02:23;;;;;;;29.38;13.88;;;15.20;99.90;;;;;;4989746;28;20042;-70
2023/05/11 10:04:50;;;;;;;30.45;13.40;;;15.30;99.90;;;;;;4990676;28;20558;-72
2023/05/11 10:07:30;;;;;;;33.55;16.27;;;15.50;99.90;;;;;;4970026;28;20073;-73
2023/05/11 10:10:02;;;;;;;32.88;15.60;;;15.70;99.90;;;;;;4992084;28;20018;-71
2023/05/11 10:12:31;;;;;;;31.20;15.18;;;15.70;99.90;;;;;;4984656;28;20085;-73
2023/05/11 10:15:05;;;;;;;32.15;15.18;;;15.80;99.90;;;;;;4989115;28;20050;-74
2023/05/11 10:17:31;;;;;;;26.52;13.68;;;15.90;99.90;;;;;;4971713;28;20037;-71
2023/05/11 10:19:58;;;;;;;25.95;13.20;;;15.90;99.90;;;;;;4988853;28;20105;-74
2023/05/11 10:22:25;;;;;;;30.98;14.07;;;16.00;99.90;;;;;;4992453;28;20085;-72
2023/05/11 10:24:51;;;;;;;25.55;12.82;;;16.10;99.90;;;;;;4974446;28;20483;-71
2023/05/11 10:27:17;;;;;;;26.52;13.48;;;16.20;99.90;;;;;;4987675;28;20065;-73
2023/05/11 10:29:44;;;;;;;28.85;13.30;;;16.10;99.90;;;;;;4987977;28;20874;-72
2023/05/11 10:32:10;;;;;;;28.27;13.52;;;16.10;99.90;;;;;;4985742;28;20030;-72
2023/05/11 10:34:39;;;;;;;26.80;13.07;;;16.10;99.90;;;;;;4975107;28;20053;-74
2023/05/11 10:37:05;;;;;;;23.38;11.73;;;16.20;99.90;;;;;;4973398;28;20023;-73
2023/05/11 10:39:31;;;;;;;20.75;11.57;;;16.20;99.90;;;;;;4972500;28;20030;-72
2023/05/11 10:42:06;;;;;;;21.00;11.52;;;16.20;99.90;;;;;;4973702;28;20015;-72
2023/05/11 10:44:51;;;;;;;21.77;11.10;;;16.20;99.90;;;;;;4990012;28;20050;-73
2023/05/11 10:47:36;;;;;;;;;;;16.10;99.90;;;;;;4989446;28;20094;-72
2023/05/11 10:50:21;;;;;;;16.65;9.75;;;16.10;99.90;;;;;;4971889;28;19964;-73
2023/05/11 10:52:56;;;;;;;16.55;9.63;;;16.10;99.90;;;;;;4973805;28;20034;-72
2023/05/11 10:55:53;;;;;;;15.23;9.05;;;16.20;99.90;;;;;;4976198;28;20018;-72
2023/05/11 10:58:40;;;;;;;14.07;8.93;;;16.20;99.90;;;;;;4996396;28;20054;-71
2023/05/11 11:01:10;;;;;;;15.13;9.63;;;16.20;99.90;;;;;;4994265;28;20047;-72
2023/05/11 11:03:36;;;;;;;16.15;9.93;;;16.20;99.90;;;;;;4995509;28;20023;-72
2023/05/11 11:06:02;;;;;;;15.25;9.77;;;16.10;99.90;;;;;;4995913;28;20033;-76
2023/05/11 11:08:28;;;;;;;15.80;9.63;;;16.00;99.90;;;;;;4994988;28;20395;-72
2023/05/11 11:10:55;;;;;;;13.70;9.15;;;16.00;99.90;;;;;;4975950;28;20045;-73
2023/05/11 11:13:22;;;;;;;13.63;9.00;;;15.90;99.90;;;;;;4995149;28;20050;-73
2023/05/11 11:15:56;;;;;;;13.80;9.15;;;16.00;99.90;;;;;;4977018;28;20031;-72
2023/05/11 11:18:24;;;;;;;16.63;9.82;;;16.00;99.90;;;;;;4978239;28;20030;-76
2023/05/11 11:20:54;;;;;;;13.65;8.52;;;16.10;99.90;;;;;;4994888;28;20019;-73
2023/05/11 11:23:38;;;;;;;14.10;8.20;;;16.20;99.90;;;;;;4977216;28;20018;-74
2023/05/11 11:26:05;;;;;;;11.43;7.55;;;16.20;99.90;;;;;;4993332;28;20014;-72
2023/05/11 11:29:01;;;;;;;10.52;7.03;;;16.30;99.90;;;;;;4994646;28;20042;-71
2023/05/11 11:31:31;;;;;;;12.98;7.75;;;16.40;99.90;;;;;;4973314;28;20081;-75
2023/05/11 11:34:18;;;;;;;11.93;8.15;;;16.50;99.90;;;;;;4972609;28;20023;-73
2023/05/11 11:37:05;;;;;;;10.98;7.28;;;16.40;99.90;;;;;;4994147;28;20107;-74
2023/05/11 11:39:43;;;;;;;9.68;7.03;;;16.40;99.90;;;;;;4975806;28;20033;-72
2023/05/11 11:42:14;;;;;;;12.02;7.70;;;16.50;99.90;;;;;;4994736;28;20026;-72
2023/05/11 11:44:41;;;;;;;12.98;8.20;;;16.50;99.90;;;;;;4977308;28;20095;-72
2023/05/11 11:47:12;;;;;;;9.45;6.60;;;16.50;99.90;;;;;;4976115;28;20053;-72
2023/05/11 11:49:40;;;;;;;8.30;5.65;;;16.40;99.90;;;;;;4978021;28;20042;-73
2023/05/11 11:52:11;;;;;;;9.40;6.50;;;16.40;99.90;;;;;;4977252;28;20050;-72
2023/05/11 11:54:38;;;;;;;9.23;6.88;;;16.40;99.90;;;;;;4995040;28;20029;-72
2023/05/11 11:57:04;;;;;;;12.05;6.93;;;16.40;99.90;;;;;;4974620;28;20018;-72
2023/05/11 11:59:44;;;;;;;8.93;6.10;;;16.30;99.90;;;;;;4994785;28;20035;-72
2023/05/11 12:02:13;;;;;;;12.52;7.03;;;16.20;99.90;;;;;;4993073;28;20034;-72
2023/05/11 12:04:49;;;;;;;13.35;6.93;;;16.20;99.90;;;;;;4994617;28;20049;-71
2023/05/11 12:07:18;;;;;;;9.82;7.05;;;16.20;99.90;;;;;;4976127;28;20041;-72
2023/05/11 12:09:45;;;;;;;11.30;7.20;;;16.30;99.90;;;;;;4971908;28;20377;-72
2023/05/11 12:12:10;;;;;;;15.40;7.88;;;16.20;99.90;;;;;;4988801;28;20811;-73
2023/05/11 12:14:38;;;;;;;10.05;6.90;;;16.30;99.90;;;;;;4971623;28;20030;-73
2023/05/11 12:17:12;;;;;;;10.43;6.38;;;16.20;99.90;;;;;;4972571;28;20030;-71
2023/05/11 12:19:37;;;;;;;11.43;6.55;;;16.20;99.90;;;;;;4989068;28;20088;-72
2023/05/11 12:22:03;;;;;;;9.82;6.55;;;16.20;99.90;;;;;;4974262;28;20938;-72
2023/05/11 12:24:29;;;;;;;11.88;7.88;;;16.20;99.90;;;;;;4994040;28;20066;-73
2023/05/11 12:26:56;;;;;;;16.23;9.02;;;16.30;99.90;;;;;;4974561;28;20035;-73
2023/05/11 12:29:22;;;;;;;15.80;9.45;;;16.20;99.90;;;;;;4971780;28;20035;-74
2023/05/11 12:31:47;;;;;;;14.70;9.60;;;16.10;99.90;;;;;;4971735;28;20547;-72
2023/05/11 12:34:22;;;;;;;12.68;9.07;;;16.00;99.90;;;;;;4991411;28;20030;-72